Main page
METAR-TAF:

METAR-TAF

Airports :

Nakhchivan International Airport

Nakhchivan, Azerbaijan

latitude: 39-11-19N, longitude: 045-27-30E, elevation: 873 m

Current weather observation

The report was made 44 minutes ago, at 01:00 UTC
Wind 4 kt from the East/Southeast
Temperature 21°C
Humidity 46%
Pressure 1012 hPa
Visibility 10 km or more
Few clouds at a height of 5000 ft, Cumulonimbus.
Scattered clouds at a height of 10000 ft

METAR: UBBN 200100Z 11004KT 9999 FEW050CB SCT100 21/09 Q1012 R14R/CLRD// NOSIG RMK MT OP QFE684

Time: 05:44 (01:44 UTC)

Forecast

The report was made 2 hours and 44 minutes ago, at 23:00 UTC
Forecast valid from 20 at 00 UTC to 20 at 24 UTC
Wind 10 kt from the South/Southeast
Visibility 10 km or more
Scattered clouds at a height of 4500 ft
Few clouds at a height of 5000 ft
Broken clouds at a height of 10000 ft
Temporary
from 20 at 00 UTC to 20 at 06 UTC
Wind 10 kt from the East

TAF: UBBN 192300Z 2000/2024 15010KT 9999 SCT045 FEW050 BKN100 TX34/202Z TN16/2002Z TEMPO 2000/2006 10010KT

Weather observations and forecasts of more than 4000 airports (METAR and TAF reports).

The available stations are represented by yellow and red dots on the map.

Hover mouse over dot to see the name of the station.

Then click to see weather observations and forecasts.

To change the map : click on the green buttons with a black cross to zoom in, on the green button with a dash to zoom out, or on the green arrows for adjacent maps.


METAR-TAF: